sensor_id;sensor_type;location;lat;lon;timestamp;P1;durP1;ratioP1;P2;durP2;ratioP2
27580;SDS011;63557;52.302;7.964;2024-02-15T00:04:08;42.88;;;26.40;;
27580;SDS011;63557;52.302;7.964;2024-02-15T00:09:11;44.13;;;25.67;;
27580;SDS011;63557;52.302;7.964;2024-02-15T00:14:11;37.70;;;25.27;;
27580;SDS011;63557;52.302;7.964;2024-02-15T00:19:12;41.28;;;24.45;;
27580;SDS011;63557;52.302;7.964;2024-02-15T00:24:14;42.38;;;26.20;;
27580;SDS011;63557;52.302;7.964;2024-02-15T00:29:15;39.35;;;24.15;;
27580;SDS011;63557;52.302;7.964;2024-02-15T00:34:15;42.13;;;25.77;;
27580;SDS011;63557;52.302;7.964;2024-02-15T00:39:16;44.53;;;26.67;;
27580;SDS011;63557;52.302;7.964;2024-02-15T00:44:18;37.97;;;24.67;;
27580;SDS011;63557;52.302;7.964;2024-02-15T00:49:18;42.78;;;25.73;;
27580;SDS011;63557;52.302;7.964;2024-02-15T00:54:23;35.25;;;23.05;;
27580;SDS011;63557;52.302;7.964;2024-02-15T00:59:23;40.57;;;24.73;;
27580;SDS011;63557;52.302;7.964;2024-02-15T01:04:23;34.97;;;22.05;;
27580;SDS011;63557;52.302;7.964;2024-02-15T01:09:24;29.83;;;20.90;;
27580;SDS011;63557;52.302;7.964;2024-02-15T01:14:24;29.58;;;20.75;;
27580;SDS011;63557;52.302;7.964;2024-02-15T01:19:25;28.58;;;20.08;;
27580;SDS011;63557;52.302;7.964;2024-02-15T01:24:25;36.40;;;22.73;;
27580;SDS011;63557;52.302;7.964;2024-02-15T01:29:26;36.35;;;23.17;;
27580;SDS011;63557;52.302;7.964;2024-02-15T01:34:26;41.43;;;24.67;;
27580;SDS011;63557;52.302;7.964;2024-02-15T01:39:26;38.30;;;24.43;;
27580;SDS011;63557;52.302;7.964;2024-02-15T01:44:27;39.97;;;24.88;;
27580;SDS011;63557;52.302;7.964;2024-02-15T01:49:27;40.37;;;25.90;;
27580;SDS011;63557;52.302;7.964;2024-02-15T01:54:28;40.30;;;25.38;;
27580;SDS011;63557;52.302;7.964;2024-02-15T01:59:28;45.00;;;26.17;;
27580;SDS011;63557;52.302;7.964;2024-02-15T02:04:30;43.30;;;26.00;;
27580;SDS011;63557;52.302;7.964;2024-02-15T02:09:31;47.90;;;25.27;;
27580;SDS011;63557;52.302;7.964;2024-02-15T02:14:32;47.47;;;24.90;;
27580;SDS011;63557;52.302;7.964;2024-02-15T02:19:32;39.73;;;23.10;;
27580;SDS011;63557;52.302;7.964;2024-02-15T02:24:33;40.67;;;22.55;;
27580;SDS011;63557;52.302;7.964;2024-02-15T02:29:41;33.17;;;20.77;;
27580;SDS011;63557;52.302;7.964;2024-02-15T02:34:43;32.40;;;20.02;;
27580;SDS011;63557;52.302;7.964;2024-02-15T02:39:44;38.45;;;20.13;;
27580;SDS011;63557;52.302;7.964;2024-02-15T02:44:44;34.23;;;20.63;;
27580;SDS011;63557;52.302;7.964;2024-02-15T02:49:45;36.45;;;19.67;;
27580;SDS011;63557;52.302;7.964;2024-02-15T02:54:45;33.23;;;18.87;;
27580;SDS011;63557;52.302;7.964;2024-02-15T02:59:46;30.90;;;18.75;;
27580;SDS011;63557;52.302;7.964;2024-02-15T03:04:47;32.78;;;18.02;;
27580;SDS011;63557;52.302;7.964;2024-02-15T03:09:48;36.03;;;20.70;;
27580;SDS011;63557;52.302;7.964;2024-02-15T03:14:48;42.00;;;23.03;;
27580;SDS011;63557;52.302;7.964;2024-02-15T03:19:48;42.13;;;23.30;;
27580;SDS011;63557;52.302;7.964;2024-02-15T03:24:49;45.10;;;23.88;;
27580;SDS011;63557;52.302;7.964;2024-02-15T03:29:49;48.27;;;25.37;;
27580;SDS011;63557;52.302;7.964;2024-02-15T03:34:50;50.08;;;25.98;;
27580;SDS011;63557;52.302;7.964;2024-02-15T03:39:51;54.63;;;28.08;;
27580;SDS011;63557;52.302;7.964;2024-02-15T03:44:51;57.20;;;29.07;;
27580;SDS011;63557;52.302;7.964;2024-02-15T03:49:54;56.10;;;29.73;;
27580;SDS011;63557;52.302;7.964;2024-02-15T03:54:56;61.42;;;32.00;;
27580;SDS011;63557;52.302;7.964;2024-02-15T03:59:59;70.32;;;34.90;;
27580;SDS011;63557;52.302;7.964;2024-02-15T04:05:00;64.38;;;33.53;;
27580;SDS011;63557;52.302;7.964;2024-02-15T04:10:01;62.92;;;34.17;;
27580;SDS011;63557;52.302;7.964;2024-02-15T04:15:01;73.10;;;33.80;;
27580;SDS011;63557;52.302;7.964;2024-02-15T04:20:10;73.65;;;34.78;;
27580;SDS011;63557;52.302;7.964;2024-02-15T04:25:12;75.18;;;36.25;;
27580;SDS011;63557;52.302;7.964;2024-02-15T04:30:16;66.40;;;36.35;;
27580;SDS011;63557;52.302;7.964;2024-02-15T04:35:16;66.85;;;33.05;;
27580;SDS011;63557;52.302;7.964;2024-02-15T04:40:17;68.37;;;34.40;;
27580;SDS011;63557;52.302;7.964;2024-02-15T04:45:18;67.70;;;34.60;;
27580;SDS011;63557;52.302;7.964;2024-02-15T04:50:21;66.72;;;34.38;;
27580;SDS011;63557;52.302;7.964;2024-02-15T04:55:21;71.23;;;35.40;;
27580;SDS011;63557;52.302;7.964;2024-02-15T05:00:23;67.30;;;35.63;;
27580;SDS011;63557;52.302;7.964;2024-02-15T05:05:25;81.32;;;39.45;;
27580;SDS011;63557;52.302;7.964;2024-02-15T05:10:27;87.22;;;43.67;;
27580;SDS011;63557;52.302;7.964;2024-02-15T05:15:28;102.10;;;46.60;;
27580;SDS011;63557;52.302;7.964;2024-02-15T05:20:29;108.18;;;52.55;;
27580;SDS011;63557;52.302;7.964;2024-02-15T05:25:29;124.53;;;57.03;;
27580;SDS011;63557;52.302;7.964;2024-02-15T05:30:33;127.40;;;58.45;;
27580;SDS011;63557;52.302;7.964;2024-02-15T05:35:33;138.52;;;63.75;;
27580;SDS011;63557;52.302;7.964;2024-02-15T05:40:35;148.13;;;65.03;;
27580;SDS011;63557;52.302;7.964;2024-02-15T05:45:36;148.48;;;63.63;;
27580;SDS011;63557;52.302;7.964;2024-02-15T05:50:39;165.93;;;66.18;;
27580;SDS011;63557;52.302;7.964;2024-02-15T05:55:40;165.30;;;65.68;;
27580;SDS011;63557;52.302;7.964;2024-02-15T06:00:44;164.30;;;66.78;;
27580;SDS011;63557;52.302;7.964;2024-02-15T06:05:44;154.20;;;63.20;;
27580;SDS011;63557;52.302;7.964;2024-02-15T06:10:45;152.93;;;60.37;;
27580;SDS011;63557;52.302;7.964;2024-02-15T06:15:47;145.35;;;59.72;;
27580;SDS011;63557;52.302;7.964;2024-02-15T06:20:52;154.15;;;61.25;;
27580;SDS011;63557;52.302;7.964;2024-02-15T06:25:54;132.73;;;54.75;;
27580;SDS011;63557;52.302;7.964;2024-02-15T06:30:56;120.43;;;52.78;;
27580;SDS011;63557;52.302;7.964;2024-02-15T06:36:15;135.52;;;49.60;;
27580;SDS011;63557;52.302;7.964;2024-02-15T06:41:33;101.60;;;47.78;;
27580;SDS011;63557;52.302;7.964;2024-02-15T06:46:34;110.82;;;47.55;;
27580;SDS011;63557;52.302;7.964;2024-02-15T06:51:35;98.90;;;45.90;;
27580;SDS011;63557;52.302;7.964;2024-02-15T06:56:38;90.37;;;44.40;;
27580;SDS011;63557;52.302;7.964;2024-02-15T07:01:42;94.80;;;42.85;;
27580;SDS011;63557;52.302;7.964;2024-02-15T07:06:43;81.95;;;40.67;;
27580;SDS011;63557;52.302;7.964;2024-02-15T07:11:46;77.10;;;37.22;;
27580;SDS011;63557;52.302;7.964;2024-02-15T07:16:46;65.17;;;33.07;;
27580;SDS011;63557;52.302;7.964;2024-02-15T07:21:47;57.58;;;32.13;;
27580;SDS011;63557;52.302;7.964;2024-02-15T07:26:47;56.40;;;28.58;;
27580;SDS011;63557;52.302;7.964;2024-02-15T07:31:48;59.23;;;28.73;;
27580;SDS011;63557;52.302;7.964;2024-02-15T07:36:49;56.75;;;26.80;;
27580;SDS011;63557;52.302;7.964;2024-02-15T07:41:53;51.92;;;24.15;;
27580;SDS011;63557;52.302;7.964;2024-02-15T07:46:53;43.17;;;22.42;;
27580;SDS011;63557;52.302;7.964;2024-02-15T07:51:54;40.55;;;21.63;;
27580;SDS011;63557;52.302;7.964;2024-02-15T07:56:54;44.43;;;20.10;;
27580;SDS011;63557;52.302;7.964;2024-02-15T08:01:55;43.72;;;19.35;;
27580;SDS011;63557;52.302;7.964;2024-02-15T08:06:55;31.17;;;18.33;;
27580;SDS011;63557;52.302;7.964;2024-02-15T08:11:56;30.15;;;18.45;;
27580;SDS011;63557;52.302;7.964;2024-02-15T08:16:56;33.13;;;18.23;;
27580;SDS011;63557;52.302;7.964;2024-02-15T08:21:56;39.53;;;20.67;;
27580;SDS011;63557;52.302;7.964;2024-02-15T08:26:57;32.40;;;20.60;;
27580;SDS011;63557;52.302;7.964;2024-02-15T08:31:59;35.53;;;20.75;;
27580;SDS011;63557;52.302;7.964;2024-02-15T08:37:00;34.23;;;18.80;;
27580;SDS011;63557;52.302;7.964;2024-02-15T08:42:00;32.00;;;19.70;;
27580;SDS011;63557;52.302;7.964;2024-02-15T08:47:00;32.30;;;17.92;;
27580;SDS011;63557;52.302;7.964;2024-02-15T08:52:01;36.65;;;18.65;;
27580;SDS011;63557;52.302;7.964;2024-02-15T08:57:01;33.53;;;18.70;;
27580;SDS011;63557;52.302;7.964;2024-02-15T09:02:02;26.60;;;17.45;;
27580;SDS011;63557;52.302;7.964;2024-02-15T09:07:03;31.55;;;18.27;;
27580;SDS011;63557;52.302;7.964;2024-02-15T09:12:04;33.40;;;17.20;;
27580;SDS011;63557;52.302;7.964;2024-02-15T09:17:07;30.20;;;15.90;;
27580;SDS011;63557;52.302;7.964;2024-02-15T09:22:08;28.65;;;16.98;;
27580;SDS011;63557;52.302;7.964;2024-02-15T09:27:08;23.87;;;14.70;;
27580;SDS011;63557;52.302;7.964;2024-02-15T09:32:12;20.48;;;13.90;;
27580;SDS011;63557;52.302;7.964;2024-02-15T09:37:13;21.23;;;13.68;;
27580;SDS011;63557;52.302;7.964;2024-02-15T09:42:14;24.23;;;12.30;;
27580;SDS011;63557;52.302;7.964;2024-02-15T09:47:15;18.00;;;10.80;;
27580;SDS011;63557;52.302;7.964;2024-02-15T09:52:16;22.25;;;10.55;;
27580;SDS011;63557;52.302;7.964;2024-02-15T09:57:18;15.88;;;9.10;;
27580;SDS011;63557;52.302;7.964;2024-02-15T10:02:19;21.10;;;10.57;;
27580;SDS011;63557;52.302;7.964;2024-02-15T10:07:21;18.85;;;11.30;;
27580;SDS011;63557;52.302;7.964;2024-02-15T10:12:22;21.92;;;11.32;;
27580;SDS011;63557;52.302;7.964;2024-02-15T10:17:23;22.60;;;11.15;;
27580;SDS011;63557;52.302;7.964;2024-02-15T10:22:23;22.63;;;9.60;;
27580;SDS011;63557;52.302;7.964;2024-02-15T10:27:24;17.60;;;10.82;;
27580;SDS011;63557;52.302;7.964;2024-02-15T10:32:24;16.27;;;10.70;;
27580;SDS011;63557;52.302;7.964;2024-02-15T10:37:34;19.98;;;12.32;;
27580;SDS011;63557;52.302;7.964;2024-02-15T10:42:36;19.07;;;11.23;;
27580;SDS011;63557;52.302;7.964;2024-02-15T10:47:37;17.92;;;10.85;;
27580;SDS011;63557;52.302;7.964;2024-02-15T10:52:45;18.73;;;10.05;;
27580;SDS011;63557;52.302;7.964;2024-02-15T10:57:48;18.13;;;10.30;;
27580;SDS011;63557;52.302;7.964;2024-02-15T11:02:55;15.80;;;9.93;;
27580;SDS011;63557;52.302;7.964;2024-02-15T11:08:03;16.95;;;9.25;;
27580;SDS011;63557;52.302;7.964;2024-02-15T11:13:04;15.25;;;10.60;;
27580;SDS011;63557;52.302;7.964;2024-02-15T11:18:05;17.27;;;11.95;;
27580;SDS011;63557;52.302;7.964;2024-02-15T11:23:05;21.02;;;11.88;;
27580;SDS011;63557;52.302;7.964;2024-02-15T11:33:30;12.95;;;6.47;;
27580;SDS011;63557;52.302;7.964;2024-02-15T11:38:31;13.43;;;5.53;;
27580;SDS011;63557;52.302;7.964;2024-02-15T11:49:04;14.77;;;6.90;;
27580;SDS011;63557;52.302;7.964;2024-02-15T11:54:09;12.80;;;5.63;;
27580;SDS011;63557;52.302;7.964;2024-02-15T11:59:13;15.63;;;6.53;;
27580;SDS011;63557;52.302;7.964;2024-02-15T12:04:29;17.52;;;7.05;;
27580;SDS011;63557;52.302;7.964;2024-02-15T12:09:48;14.90;;;7.10;;
27580;SDS011;63557;52.302;7.964;2024-02-15T12:15:07;13.50;;;7.00;;
27580;SDS011;63557;52.302;7.964;2024-02-15T12:20:31;11.13;;;6.15;;
27580;SDS011;63557;52.302;7.964;2024-02-15T12:25:32;8.35;;;4.95;;
27580;SDS011;63557;52.302;7.964;2024-02-15T12:30:33;10.75;;;4.50;;
27580;SDS011;63557;52.302;7.964;2024-02-15T12:35:36;16.05;;;4.15;;
27580;SDS011;63557;52.302;7.964;2024-02-15T12:40:39;8.48;;;3.58;;
27580;SDS011;63557;52.302;7.964;2024-02-15T12:45:41;7.85;;;3.75;;
27580;SDS011;63557;52.302;7.964;2024-02-15T12:50:41;7.13;;;3.55;;
27580;SDS011;63557;52.302;7.964;2024-02-15T12:55:42;9.15;;;3.88;;
27580;SDS011;63557;52.302;7.964;2024-02-15T13:00:42;8.65;;;3.20;;
27580;SDS011;63557;52.302;7.964;2024-02-15T13:05:43;7.97;;;3.15;;
27580;SDS011;63557;52.302;7.964;2024-02-15T13:10:44;12.07;;;4.32;;
27580;SDS011;63557;52.302;7.964;2024-02-15T13:15:44;9.43;;;3.28;;
27580;SDS011;63557;52.302;7.964;2024-02-15T13:20:44;7.93;;;3.47;;
27580;SDS011;63557;52.302;7.964;2024-02-15T13:25:45;9.80;;;3.80;;
27580;SDS011;63557;52.302;7.964;2024-02-15T13:30:45;12.27;;;3.25;;
27580;SDS011;63557;52.302;7.964;2024-02-15T13:35:46;7.97;;;3.40;;
27580;SDS011;63557;52.302;7.964;2024-02-15T13:40:46;9.35;;;3.35;;
27580;SDS011;63557;52.302;7.964;2024-02-15T13:45:49;9.30;;;3.97;;
27580;SDS011;63557;52.302;7.964;2024-02-15T13:50:52;7.00;;;3.80;;
27580;SDS011;63557;52.302;7.964;2024-02-15T13:55:53;9.57;;;3.83;;
27580;SDS011;63557;52.302;7.964;2024-02-15T14:00:53;9.00;;;3.95;;
27580;SDS011;63557;52.302;7.964;2024-02-15T14:05:54;11.50;;;4.57;;
27580;SDS011;63557;52.302;7.964;2024-02-15T14:10:54;10.70;;;4.03;;
27580;SDS011;63557;52.302;7.964;2024-02-15T14:15:55;12.13;;;3.50;;
27580;SDS011;63557;52.302;7.964;2024-02-15T14:20:56;9.60;;;3.88;;
27580;SDS011;63557;52.302;7.964;2024-02-15T14:25:56;10.35;;;3.75;;
27580;SDS011;63557;52.302;7.964;2024-02-15T14:31:00;10.82;;;4.03;;
27580;SDS011;63557;52.302;7.964;2024-02-15T14:36:19;9.93;;;3.45;;
27580;SDS011;63557;52.302;7.964;2024-02-15T14:41:20;8.30;;;2.92;;
27580;SDS011;63557;52.302;7.964;2024-02-15T14:46:22;11.38;;;3.50;;
27580;SDS011;63557;52.302;7.964;2024-02-15T14:51:24;10.05;;;3.50;;
27580;SDS011;63557;52.302;7.964;2024-02-15T14:56:25;10.93;;;3.42;;
27580;SDS011;63557;52.302;7.964;2024-02-15T15:01:26;9.20;;;3.97;;
27580;SDS011;63557;52.302;7.964;2024-02-15T15:06:27;7.50;;;3.10;;
27580;SDS011;63557;52.302;7.964;2024-02-15T15:11:46;9.40;;;3.63;;
27580;SDS011;63557;52.302;7.964;2024-02-15T15:17:05;7.68;;;3.30;;
27580;SDS011;63557;52.302;7.964;2024-02-15T15:22:05;8.90;;;3.15;;
27580;SDS011;63557;52.302;7.964;2024-02-15T15:27:06;10.70;;;3.28;;
27580;SDS011;63557;52.302;7.964;2024-02-15T15:32:08;10.10;;;3.58;;
27580;SDS011;63557;52.302;7.964;2024-02-15T15:37:08;7.55;;;3.45;;
27580;SDS011;63557;52.302;7.964;2024-02-15T15:42:10;7.85;;;3.10;;
27580;SDS011;63557;52.302;7.964;2024-02-15T15:47:11;9.32;;;2.90;;
27580;SDS011;63557;52.302;7.964;2024-02-15T15:52:11;10.98;;;3.25;;
27580;SDS011;63557;52.302;7.964;2024-02-15T15:57:12;11.13;;;3.23;;
27580;SDS011;63557;52.302;7.964;2024-02-15T16:02:12;6.00;;;3.17;;
27580;SDS011;63557;52.302;7.964;2024-02-15T16:07:13;9.40;;;3.22;;
27580;SDS011;63557;52.302;7.964;2024-02-15T16:12:14;9.63;;;3.72;;
27580;SDS011;63557;52.302;7.964;2024-02-15T16:17:18;8.27;;;3.97;;
27580;SDS011;63557;52.302;7.964;2024-02-15T16:22:18;8.85;;;3.28;;
27580;SDS011;63557;52.302;7.964;2024-02-15T16:27:19;7.67;;;3.50;;
27580;SDS011;63557;52.302;7.964;2024-02-15T16:32:19;7.30;;;3.80;;
27580;SDS011;63557;52.302;7.964;2024-02-15T16:37:20;11.38;;;5.35;;
27580;SDS011;63557;52.302;7.964;2024-02-15T16:42:20;17.98;;;7.85;;
27580;SDS011;63557;52.302;7.964;2024-02-15T16:47:21;18.00;;;5.90;;
27580;SDS011;63557;52.302;7.964;2024-02-15T16:52:21;15.13;;;4.28;;
27580;SDS011;63557;52.302;7.964;2024-02-15T16:57:24;13.55;;;5.30;;
27580;SDS011;63557;52.302;7.964;2024-02-15T17:02:25;12.70;;;6.80;;
27580;SDS011;63557;52.302;7.964;2024-02-15T17:07:27;17.13;;;8.30;;
27580;SDS011;63557;52.302;7.964;2024-02-15T17:12:27;19.58;;;7.53;;
27580;SDS011;63557;52.302;7.964;2024-02-15T17:17:28;18.27;;;7.85;;
27580;SDS011;63557;52.302;7.964;2024-02-15T17:22:29;11.07;;;7.70;;
27580;SDS011;63557;52.302;7.964;2024-02-15T17:27:29;23.63;;;11.37;;
27580;SDS011;63557;52.302;7.964;2024-02-15T17:32:29;13.23;;;7.23;;
27580;SDS011;63557;52.302;7.964;2024-02-15T17:37:30;13.85;;;8.93;;
27580;SDS011;63557;52.302;7.964;2024-02-15T17:42:31;26.92;;;14.07;;
27580;SDS011;63557;52.302;7.964;2024-02-15T17:47:31;42.10;;;22.48;;
27580;SDS011;63557;52.302;7.964;2024-02-15T17:52:32;36.60;;;20.60;;
27580;SDS011;63557;52.302;7.964;2024-02-15T17:57:32;34.67;;;18.80;;
27580;SDS011;63557;52.302;7.964;2024-02-15T18:02:39;36.95;;;16.33;;
27580;SDS011;63557;52.302;7.964;2024-02-15T18:07:41;39.30;;;18.98;;
27580;SDS011;63557;52.302;7.964;2024-02-15T18:12:41;27.53;;;13.10;;
27580;SDS011;63557;52.302;7.964;2024-02-15T18:17:44;29.80;;;12.18;;
27580;SDS011;63557;52.302;7.964;2024-02-15T18:22:48;23.13;;;11.77;;
27580;SDS011;63557;52.302;7.964;2024-02-15T18:27:49;25.65;;;12.52;;
27580;SDS011;63557;52.302;7.964;2024-02-15T18:32:49;22.10;;;9.35;;
27580;SDS011;63557;52.302;7.964;2024-02-15T18:37:52;23.20;;;11.67;;
27580;SDS011;63557;52.302;7.964;2024-02-15T18:42:53;26.60;;;11.70;;
27580;SDS011;63557;52.302;7.964;2024-02-15T18:47:53;25.08;;;12.13;;
27580;SDS011;63557;52.302;7.964;2024-02-15T18:52:54;32.87;;;16.07;;
27580;SDS011;63557;52.302;7.964;2024-02-15T18:57:57;25.23;;;10.90;;
27580;SDS011;63557;52.302;7.964;2024-02-15T19:02:58;23.70;;;10.38;;
27580;SDS011;63557;52.302;7.964;2024-02-15T19:07:59;21.45;;;9.75;;
27580;SDS011;63557;52.302;7.964;2024-02-15T19:13:00;37.95;;;18.10;;
27580;SDS011;63557;52.302;7.964;2024-02-15T19:18:00;19.25;;;13.00;;
27580;SDS011;63557;52.302;7.964;2024-02-15T19:23:01;26.08;;;17.27;;
27580;SDS011;63557;52.302;7.964;2024-02-15T19:28:01;19.85;;;11.23;;
27580;SDS011;63557;52.302;7.964;2024-02-15T19:33:05;24.42;;;16.10;;
27580;SDS011;63557;52.302;7.964;2024-02-15T19:38:05;22.88;;;13.85;;
27580;SDS011;63557;52.302;7.964;2024-02-15T19:43:06;64.53;;;40.03;;
27580;SDS011;63557;52.302;7.964;2024-02-15T19:48:09;62.80;;;39.30;;
27580;SDS011;63557;52.302;7.964;2024-02-15T19:53:11;21.15;;;11.48;;
27580;SDS011;63557;52.302;7.964;2024-02-15T19:58:11;31.20;;;18.83;;
27580;SDS011;63557;52.302;7.964;2024-02-15T20:03:12;19.80;;;12.70;;
27580;SDS011;63557;52.302;7.964;2024-02-15T20:08:12;17.93;;;9.83;;
27580;SDS011;63557;52.302;7.964;2024-02-15T20:13:13;18.53;;;10.80;;
27580;SDS011;63557;52.302;7.964;2024-02-15T20:18:13;20.83;;;10.10;;
27580;SDS011;63557;52.302;7.964;2024-02-15T20:23:13;18.20;;;10.97;;
27580;SDS011;63557;52.302;7.964;2024-02-15T20:28:14;15.43;;;10.13;;
27580;SDS011;63557;52.302;7.964;2024-02-15T20:33:14;17.80;;;8.77;;
27580;SDS011;63557;52.302;7.964;2024-02-15T20:38:14;14.23;;;7.80;;
27580;SDS011;63557;52.302;7.964;2024-02-15T20:43:16;16.08;;;8.20;;
27580;SDS011;63557;52.302;7.964;2024-02-15T20:48:16;18.92;;;8.10;;
27580;SDS011;63557;52.302;7.964;2024-02-15T20:53:17;20.10;;;8.60;;
27580;SDS011;63557;52.302;7.964;2024-02-15T20:58:17;10.90;;;7.63;;
27580;SDS011;63557;52.302;7.964;2024-02-15T21:03:17;16.13;;;8.82;;
27580;SDS011;63557;52.302;7.964;2024-02-15T21:08:18;14.00;;;8.70;;
27580;SDS011;63557;52.302;7.964;2024-02-15T21:13:21;15.50;;;8.68;;
27580;SDS011;63557;52.302;7.964;2024-02-15T21:18:24;17.67;;;10.10;;
27580;SDS011;63557;52.302;7.964;2024-02-15T21:23:26;13.20;;;9.30;;
27580;SDS011;63557;52.302;7.964;2024-02-15T21:28:26;12.98;;;8.38;;
27580;SDS011;63557;52.302;7.964;2024-02-15T21:33:27;14.93;;;8.52;;
27580;SDS011;63557;52.302;7.964;2024-02-15T21:38:27;13.40;;;7.43;;
27580;SDS011;63557;52.302;7.964;2024-02-15T21:43:28;16.10;;;8.13;;
27580;SDS011;63557;52.302;7.964;2024-02-15T21:48:28;15.38;;;7.72;;
27580;SDS011;63557;52.302;7.964;2024-02-15T21:53:29;19.40;;;7.63;;
27580;SDS011;63557;52.302;7.964;2024-02-15T21:58:30;12.65;;;7.65;;
27580;SDS011;63557;52.302;7.964;2024-02-15T22:03:30;14.68;;;7.68;;
27580;SDS011;63557;52.302;7.964;2024-02-15T22:08:31;9.85;;;6.60;;
27580;SDS011;63557;52.302;7.964;2024-02-15T22:13:31;13.20;;;6.43;;
27580;SDS011;63557;52.302;7.964;2024-02-15T22:18:32;9.98;;;6.50;;
27580;SDS011;63557;52.302;7.964;2024-02-15T22:23:33;10.38;;;6.22;;
27580;SDS011;63557;52.302;7.964;2024-02-15T22:28:33;11.63;;;6.20;;
27580;SDS011;63557;52.302;7.964;2024-02-15T22:33:34;11.53;;;7.33;;
27580;SDS011;63557;52.302;7.964;2024-02-15T22:38:37;14.77;;;8.38;;
27580;SDS011;63557;52.302;7.964;2024-02-15T22:43:38;13.70;;;9.67;;
27580;SDS011;63557;52.302;7.964;2024-02-15T22:48:38;14.13;;;9.40;;
27580;SDS011;63557;52.302;7.964;2024-02-15T22:53:39;15.63;;;10.20;;
27580;SDS011;63557;52.302;7.964;2024-02-15T22:58:44;15.90;;;10.98;;
27580;SDS011;63557;52.302;7.964;2024-02-15T23:03:45;15.13;;;10.68;;
27580;SDS011;63557;52.302;7.964;2024-02-15T23:08:45;14.90;;;10.93;;
27580;SDS011;63557;52.302;7.964;2024-02-15T23:13:46;15.43;;;10.70;;
27580;SDS011;63557;52.302;7.964;2024-02-15T23:18:47;15.90;;;10.23;;
27580;SDS011;63557;52.302;7.964;2024-02-15T23:23:47;15.17;;;9.40;;
27580;SDS011;63557;52.302;7.964;2024-02-15T23:28:47;13.80;;;7.65;;
27580;SDS011;63557;52.302;7.964;2024-02-15T23:33:48;7.82;;;4.80;;
27580;SDS011;63557;52.302;7.964;2024-02-15T23:38:48;14.03;;;5.93;;
27580;SDS011;63557;52.302;7.964;2024-02-15T23:44:07;11.60;;;6.75;;
27580;SDS011;63557;52.302;7.964;2024-02-15T23:49:08;14.03;;;7.50;;
27580;SDS011;63557;52.302;7.964;2024-02-15T23:54:10;12.40;;;6.97;;
27580;SDS011;63557;52.302;7.964;2024-02-15T23:59:10;13.70;;;7.10;;
